Time;durP1;ratioP1;P1;durP2;ratioP2;P2;SDS_P1;SDS_P2;PMS_P1;PMS_P2;Temp;Humidity;BMP_temperature;BMP_pressure;BME280_temperature;BME280_humidity;BME280_pressure;Samples;Min_cycle;Max_cycle;Signal;HPM_P1;HPM_P2
2021/05/14 00:00:05;;;;;;;16.88;11.52;;;;;;;11.35;86.01;100153.19;5058640;28;20032;-70
2021/05/14 00:02:31;;;;;;;18.80;12.45;;;;;;;11.32;86.06;100148.28;5064342;28;20098;-71
2021/05/14 00:04:56;;;;;;;20.85;12.40;;;;;;;11.29;86.28;100149.72;5067925;28;20054;-71
2021/05/14 00:07:21;;;;;;;19.55;14.35;;;;;;;11.31;86.33;100141.22;5047302;28;20028;-70
2021/05/14 00:09:47;;;;;;;25.67;14.07;;;;;;;11.31;86.42;100138.47;5043248;28;20427;-69
2021/05/14 00:12:12;;;;;;;28.17;16.38;;;;;;;11.31;86.28;100142.03;5053966;28;20109;-70
2021/05/14 00:14:38;;;;;;;23.58;15.68;;;;;;;11.34;86.55;100137.91;5059038;28;20024;-69
2021/05/14 00:17:03;;;;;;;25.30;16.08;;;;;;;11.36;86.46;100140.34;5061439;28;20075;-70
2021/05/14 00:19:28;;;;;;;22.95;14.85;;;;;;;11.38;86.46;100132.69;5057097;28;20035;-70
2021/05/14 00:21:54;;;;;;;21.38;15.25;;;;;;;11.39;86.62;100137.81;5065954;28;20032;-70
2021/05/14 00:24:19;;;;;;;24.58;16.15;;;;;;;11.41;86.67;100138.34;5051878;28;20471;-70
2021/05/14 00:26:46;;;;;;;24.83;18.40;;;;;;;11.42;86.71;100137.22;5066378;28;20028;-70
2021/05/14 00:29:12;;;;;;;25.52;16.75;;;;;;;11.44;86.82;100137.75;5051804;28;20109;-70
2021/05/14 00:31:37;;;;;;;26.63;16.58;;;;;;;11.43;86.91;100138.88;5063397;28;20423;-70
2021/05/14 00:34:03;;;;;;;23.13;15.70;;;;;;;11.43;86.94;100138.03;5051847;28;20045;-70
2021/05/14 00:36:28;;;;;;;28.95;17.50;;;;;;;11.40;87.13;100139.44;5067451;28;20032;-71
2021/05/14 00:38:53;;;;;;;26.45;17.38;;;;;;;11.41;87.13;100135.63;5059442;28;20328;-70
2021/05/14 00:41:19;;;;;;;25.55;17.85;;;;;;;11.42;87.14;100133.69;5073771;28;20016;-71
2021/05/14 00:43:44;;;;;;;24.35;17.17;;;;;;;11.42;87.16;100126.31;5055073;28;20090;-70
2021/05/14 00:46:10;;;;;;;28.27;17.95;;;;;;;11.43;87.18;100130.69;5064415;28;20051;-70
2021/05/14 00:48:37;;;;;;;26.00;17.42;;;;;;;11.44;87.35;100128.75;5054966;28;20475;-71
2021/05/14 00:51:03;;;;;;;27.50;19.20;;;;;;;11.47;87.30;100120.78;5065443;28;20028;-70
2021/05/14 00:53:29;;;;;;;28.30;19.27;;;;;;;11.49;87.29;100120.50;5066552;28;20028;-70
2021/05/14 00:55:54;;;;;;;29.88;20.77;;;;;;;11.51;87.35;100112.81;5061903;28;20043;-71
2021/05/14 00:58:19;;;;;;;28.40;18.90;;;;;;;11.51;87.42;100112.81;5063117;28;20021;-70
2021/05/14 01:00:45;;;;;;;30.85;20.67;;;;;;;11.50;87.68;100112.00;5054814;28;20376;-70
2021/05/14 01:03:14;;;;;;;32.15;19.15;;;;;;;11.51;87.63;100113.63;5065008;28;20086;-70
2021/05/14 01:05:40;;;;;;;27.15;18.30;;;;;;;11.52;87.53;100109.78;5068016;28;20017;-71
2021/05/14 01:08:06;;;;;;;33.95;20.63;;;;;;;11.53;87.62;100111.41;5062405;28;20090;-70
2021/05/14 01:10:32;;;;;;;32.67;21.52;;;;;;;11.54;87.70;100113.03;5053528;28;20032;-70
2021/05/14 01:12:57;;;;;;;28.63;20.52;;;;;;;11.56;87.75;100110.00;5061538;28;20029;-70
2021/05/14 01:15:23;;;;;;;26.75;19.80;;;;;;;11.56;87.71;100113.53;5057408;28;20029;-71
2021/05/14 01:17:48;;;;;;;25.42;19.38;;;;;;;11.56;87.63;100116.25;5069515;28;20031;-71
2021/05/14 01:20:14;;;;;;;25.85;21.50;;;;;;;11.64;87.81;100111.25;5075643;28;20021;-71
2021/05/14 01:22:40;;;;;;;25.55;19.85;;;;;;;11.69;87.93;100108.44;5065238;28;20368;-69
2021/05/14 01:25:06;;;;;;;26.88;19.48;;;;;;;11.68;87.97;100106.84;5036618;28;20053;-70
2021/05/14 01:27:32;;;;;;;27.52;20.90;;;;;;;11.73;87.95;100121.22;5055344;28;20025;-70
2021/05/14 01:29:57;;;;;;;24.88;20.70;;;;;;;11.79;87.91;100116.47;5062203;28;20020;-71
2021/05/14 01:32:22;;;;;;;29.58;23.15;;;;;;;11.84;87.97;100110.94;5063035;28;20545;-71
2021/05/14 01:34:48;;;;;;;27.23;21.75;;;;;;;11.89;88.15;100113.59;5068542;28;20066;-71
2021/05/14 01:37:13;;;;;;;30.40;22.98;;;;;;;11.95;88.31;100112.41;5055421;28;20032;-71
2021/05/14 01:39:39;;;;;;;26.52;21.70;;;;;;;12.03;88.10;100115.53;5052749;28;20021;-71
2021/05/14 01:42:04;;;;;;;25.50;20.90;;;;;;;12.07;88.18;100113.84;5053161;28;20383;-70
2021/05/14 01:44:30;;;;;;;26.42;20.27;;;;;;;12.11;88.17;100120.31;5047976;28;20025;-70
2021/05/14 01:46:55;;;;;;;24.92;20.40;;;;;;;12.13;88.47;100118.09;5069158;28;20032;-71
2021/05/14 01:49:20;;;;;;;24.70;22.05;;;;;;;12.15;88.48;100115.88;5063932;28;20029;-70
2021/05/14 01:51:46;;;;;;;25.38;21.20;;;;;;;12.18;88.56;100126.22;5057117;28;20021;-71
2021/05/14 01:54:12;;;;;;;25.17;20.95;;;;;;;12.20;88.39;100118.53;5052465;28;20024;-72
2021/05/14 01:56:37;;;;;;;27.33;22.33;;;;;;;12.21;88.60;100109.22;5052210;28;20406;-70
2021/05/14 01:59:04;;;;;;;24.33;21.20;;;;;;;12.21;88.65;100115.50;5057293;28;20422;-70
2021/05/14 02:01:30;;;;;;;26.70;21.00;;;;;;;12.23;88.64;100108.94;5064968;28;20032;-70
2021/05/14 02:03:55;;;;;;;24.65;20.98;;;;;;;12.24;88.85;100105.06;5056520;28;20024;-70
2021/05/14 02:06:21;;;;;;;25.98;21.90;;;;;;;12.25;88.89;100104.78;5065280;28;20028;-70
2021/05/14 02:08:46;;;;;;;27.70;22.27;;;;;;;12.23;88.97;100103.47;5054628;28;20025;-70
2021/05/14 02:11:12;;;;;;;23.80;20.55;;;;;;;12.21;88.83;100101.03;5064249;28;20075;-70
2021/05/14 02:13:38;;;;;;;27.40;21.88;;;;;;;12.20;88.89;100097.47;5059221;28;20430;-71
2021/05/14 02:16:05;;;;;;;26.02;20.58;;;;;;;12.21;88.98;100092.81;5059016;28;20090;-70
2021/05/14 02:18:31;;;;;;;24.40;20.13;;;;;;;12.22;89.00;100099.91;5068993;28;20113;-70
2021/05/14 02:20:56;;;;;;;21.20;18.70;;;;;;;12.23;88.92;100098.81;5071038;28;20024;-70
2021/05/14 02:23:21;;;;;;;21.42;19.17;;;;;;;12.24;88.88;100097.69;5056295;28;20029;-70
2021/05/14 02:25:47;;;;;;;21.92;18.02;;;;;;;12.23;88.84;100085.13;5052133;28;20094;-71
2021/05/14 02:28:12;;;;;;;22.35;17.67;;;;;;;12.25;88.76;100093.00;5063336;28;20024;-70
2021/05/14 02:30:38;;;;;;;22.55;17.63;;;;;;;12.23;88.76;100085.13;5053179;28;20519;-70
2021/05/14 02:33:04;;;;;;;19.10;15.80;;;;;;;12.24;88.65;100086.75;5051954;28;20083;-70
2021/05/14 02:35:30;;;;;;;16.67;14.98;;;;;;;12.23;88.52;100096.06;5057803;28;20031;-70
2021/05/14 02:37:55;;;;;;;18.92;16.95;;;;;;;12.21;88.56;100090.09;5050575;28;20021;-70
2021/05/14 02:40:21;;;;;;;16.65;14.90;;;;;;;12.23;88.55;100096.06;5059478;28;20028;-70
2021/05/14 02:42:46;;;;;;;18.50;16.30;;;;;;;12.23;88.50;100089.78;5065571;28;20024;-70
2021/05/14 02:45:12;;;;;;;19.25;17.35;;;;;;;12.22;88.43;100094.44;5055631;28;20020;-70
2021/05/14 02:47:38;;;;;;;20.23;17.08;;;;;;;12.26;88.50;100095.47;5067488;28;20025;-70
2021/05/14 02:50:05;;;;;;;21.88;16.92;;;;;;;12.29;88.56;100100.31;5055292;28;20368;-70
2021/05/14 02:52:30;;;;;;;17.30;15.52;;;;;;;12.32;88.42;100091.50;5065629;28;20059;-70
2021/05/14 02:54:55;;;;;;;25.15;19.05;;;;;;;12.36;88.54;100091.75;5052659;28;20024;-70
2021/05/14 02:57:22;;;;;;;21.73;18.08;;;;;;;12.40;88.53;100099.00;5069851;28;20017;-70
2021/05/14 02:59:47;;;;;;;16.58;14.75;;;;;;;12.44;88.38;100091.03;5061900;28;20020;-70
2021/05/14 03:02:13;;;;;;;22.17;19.38;;;;;;;12.46;88.30;100093.44;5061461;28;20426;-70
2021/05/14 03:04:38;;;;;;;25.05;20.27;;;;;;;12.45;88.15;100092.66;5059555;28;20085;-70
2021/05/14 03:07:03;;;;;;;19.55;15.95;;;;;;;12.42;88.32;100085.84;5054285;28;20021;-70
2021/05/14 03:09:29;;;;;;;21.17;17.90;;;;;;;12.44;88.18;100097.31;5051081;28;20027;-70
2021/05/14 03:11:54;;;;;;;26.70;19.98;;;;;;;12.45;88.39;100092.66;5073128;28;20024;-71
2021/05/14 03:14:20;;;;;;;19.75;17.42;;;;;;;12.46;88.30;100091.53;5053638;28;20109;-70
2021/05/14 03:16:45;;;;;;;21.58;19.13;;;;;;;12.48;88.43;100100.22;5054018;28;20079;-70
2021/05/14 03:19:10;;;;;;;25.75;20.83;;;;;;;12.50;88.14;100094.47;5054466;28;20032;-71
2021/05/14 03:21:36;;;;;;;22.33;19.98;;;;;;;12.51;88.06;100091.41;5072862;28;20020;-70
2021/05/14 03:24:01;;;;;;;16.33;14.65;;;;;;;12.56;88.18;100094.06;5054265;28;20388;-70
2021/05/14 03:26:27;;;;;;;18.92;16.88;;;;;;;12.56;88.12;100094.06;5062989;28;20036;-70
2021/05/14 03:28:52;;;;;;;20.23;17.98;;;;;;;12.57;87.95;100094.88;5052296;28;20025;-70
2021/05/14 03:31:18;;;;;;;20.27;18.17;;;;;;;12.59;87.98;100092.66;5053251;28;20029;-70
2021/05/14 03:33:43;;;;;;;17.77;15.88;;;;;;;12.63;87.85;100093.63;5053921;28;20047;-71
2021/05/14 03:36:09;;;;;;;20.38;18.05;;;;;;;12.66;88.05;100098.53;5065415;28;20029;-70
2021/05/14 03:38:35;;;;;;;16.80;15.02;;;;;;;12.68;87.69;100085.34;5063019;28;20048;-70
2021/05/14 03:41:17;;;;;;;21.08;18.75;;;;;;;12.69;87.70;100092.44;5047979;28;20036;-70
2021/05/14 03:43:42;;;;;;;20.65;18.30;;;;;;;12.72;87.96;100091.84;5037840;28;20037;-70
2021/05/14 03:46:07;;;;;;;22.30;18.63;;;;;;;12.74;87.53;100084.13;5051588;28;20037;-70
2021/05/14 03:48:33;;;;;;;16.40;14.70;;;;;;;12.75;87.96;100087.69;5051876;28;20101;-70
2021/05/14 03:50:58;;;;;;;19.95;17.95;;;;;;;12.76;87.52;100092.81;5061030;28;20020;-70
2021/05/14 03:53:24;;;;;;;20.20;18.00;;;;;;;12.80;87.40;100093.03;5061369;28;20029;-70
2021/05/14 03:55:50;;;;;;;22.75;19.10;;;;;;;12.82;87.50;100099.00;5061358;28;20471;-70
2021/05/14 03:58:16;;;;;;;21.67;19.35;;;;;;;12.80;87.41;100099.31;5057595;28;20063;-70
2021/05/14 04:00:41;;;;;;;23.33;19.15;;;;;;;12.82;87.73;100102.56;5064545;28;20029;-70
2021/05/14 04:03:08;;;;;;;23.33;19.35;;;;;;;12.82;87.68;100102.56;5060831;28;20033;-70
2021/05/14 04:05:39;;;;;;;20.42;17.50;;;;;;;12.80;87.69;100107.53;5059076;28;20029;-70
2021/05/14 04:08:05;;;;;;;20.70;17.60;;;;;;;12.82;87.73;100118.16;5054391;28;20092;-70
2021/05/14 04:10:47;;;;;;;23.77;19.98;;;;;;;12.85;87.98;100123.03;5049588;28;20037;-69
2021/05/14 04:16:04;;;;;;;25.35;20.23;;;;;;;12.81;87.57;100117.34;5042765;28;20445;-70
2021/05/14 04:18:29;;;;;;;24.27;20.13;;;;;;;12.82;87.51;100118.97;5067832;28;20104;-70
2021/05/14 04:20:55;;;;;;;21.30;18.75;;;;;;;12.83;87.48;100111.56;5059709;28;20369;-71
2021/05/14 04:23:20;;;;;;;26.08;20.33;;;;;;;12.85;87.69;100117.56;5057241;28;20075;-70
2021/05/14 04:25:46;;;;;;;25.45;19.17;;;;;;;12.85;87.48;100118.38;5083086;28;20032;-70
2021/05/14 04:28:12;;;;;;;24.67;20.83;;;;;;;12.77;87.49;100113.59;5058743;28;20088;-71
2021/05/14 04:30:38;;;;;;;22.98;19.50;;;;;;;12.79;87.69;100116.03;5058776;28;20041;-71
2021/05/14 04:33:05;;;;;;;23.27;19.17;;;;;;;12.81;87.44;100111.06;5057638;28;20048;-71
2021/05/14 04:35:30;;;;;;;23.85;18.80;;;;;;;12.81;87.37;100111.88;5034624;28;20025;-72
2021/05/14 04:37:56;;;;;;;22.05;19.42;;;;;;;12.82;87.39;100118.97;5060476;28;20028;-72
2021/05/14 04:40:21;;;;;;;26.55;21.90;;;;;;;12.85;87.49;100106.63;5070037;28;20032;-71
2021/05/14 04:42:47;;;;;;;27.00;21.45;;;;;;;12.89;87.53;100107.63;5061300;28;20050;-71
2021/05/14 04:45:13;;;;;;;23.15;17.90;;;;;;;12.87;87.56;100110.63;5060558;28;20081;-71
2021/05/14 04:47:38;;;;;;;22.83;18.05;;;;;;;12.89;87.31;100099.41;5050828;28;20023;-72
2021/05/14 04:50:05;;;;;;;22.70;19.15;;;;;;;12.92;87.40;100106.19;5055930;28;20024;-72
2021/05/14 04:52:31;;;;;;;24.73;19.40;;;;;;;12.92;87.48;100100.72;5074839;28;20096;-72
2021/05/14 04:54:56;;;;;;;24.70;19.95;;;;;;;12.79;87.35;100103.16;5055425;28;20391;-72
2021/05/14 04:57:22;;;;;;;23.13;19.83;;;;;;;12.72;87.41;100094.56;5068637;28;20108;-72
2021/05/14 04:59:47;;;;;;;25.92;20.70;;;;;;;12.70;87.46;100099.53;5064384;28;20020;-72
2021/05/14 05:02:12;;;;;;;22.65;19.25;;;;;;;12.69;87.62;100095.19;5061053;28;20032;-72
2021/05/14 05:04:38;;;;;;;22.08;16.75;;;;;;;12.70;87.60;100099.53;5041049;28;20028;-72
2021/05/14 05:07:04;;;;;;;24.75;19.95;;;;;;;12.76;87.67;100090.09;5064210;28;20039;-72
2021/05/14 05:09:29;;;;;;;25.58;20.25;;;;;;;12.80;87.58;100082.91;5068670;28;20016;-71
2021/05/14 05:11:55;;;;;;;22.98;19.48;;;;;;;12.83;87.38;100076.03;5062384;28;20036;-72
2021/05/14 05:14:20;;;;;;;31.25;20.77;;;;;;;12.85;87.43;100080.06;5056306;28;20029;-72
2021/05/14 05:16:46;;;;;;;24.55;20.42;;;;;;;12.91;87.50;100079.97;5066564;28;20032;-72
2021/05/14 05:19:11;;;;;;;28.10;22.23;;;;;;;13.04;87.62;100076.38;5056099;28;20021;-72
2021/05/14 05:21:37;;;;;;;29.73;21.33;;;;;;;13.22;87.48;100080.88;5069339;28;20029;-72
2021/05/14 05:24:02;;;;;;;28.90;22.40;;;;;;;13.39;87.35;100087.66;5053938;28;20029;-72
2021/05/14 05:26:28;;;;;;;28.40;25.13;;;;;;;13.52;87.23;100092.28;5053405;28;20024;-73
2021/05/14 05:28:53;;;;;;;27.10;21.48;;;;;;;13.66;86.97;100086.72;5065114;28;20035;-72
2021/05/14 05:31:19;;;;;;;23.88;21.38;;;;;;;13.75;87.18;100082.16;5057394;28;20021;-72
2021/05/14 05:33:44;;;;;;;25.05;21.20;;;;;;;13.81;86.94;100088.31;5053401;28;20045;-72
2021/05/14 05:36:09;;;;;;;25.50;20.33;;;;;;;13.88;86.86;100080.44;5061406;28;20040;-72
2021/05/14 05:38:36;;;;;;;25.08;21.73;;;;;;;13.89;86.86;100085.59;5058840;28;20036;-73
2021/05/14 05:41:01;;;;;;;35.30;29.30;;;;;;;13.90;86.84;100087.22;5058134;28;20372;-72
2021/05/14 05:43:27;;;;;;;28.25;25.13;;;;;;;13.96;86.72;100085.16;5057484;28;20044;-72
2021/05/14 05:45:52;;;;;;;29.00;23.95;;;;;;;14.05;86.88;100094.25;5063962;28;20099;-72
2021/05/14 05:48:18;;;;;;;25.90;20.60;;;;;;;14.09;86.75;100099.91;5062994;28;20036;-72
2021/05/14 05:50:43;;;;;;;25.98;19.38;;;;;;;14.15;86.68;100104.13;5054954;28;20114;-73
2021/05/14 05:53:09;;;;;;;23.05;19.08;;;;;;;14.28;86.61;100102.44;5062560;28;20025;-72
2021/05/14 05:55:35;;;;;;;23.25;19.27;;;;;;;14.40;86.64;100105.38;5061842;28;20024;-72
2021/05/14 05:58:07;;;;;;;21.73;19.33;;;;;;;14.48;86.30;100095.56;5059623;28;20182;-73
2021/05/14 06:00:32;;;;;;;24.33;20.55;;;;;;;14.55;86.14;100102.25;5066119;28;20078;-72
2021/05/14 06:02:58;;;;;;;23.70;19.55;;;;;;;14.62;86.05;100105.34;5063849;28;20032;-72
2021/05/14 06:05:23;;;;;;;22.33;19.67;;;;;;;14.65;86.17;100112.13;5053872;28;20364;-74
2021/05/14 06:07:49;;;;;;;22.85;19.55;;;;;;;14.66;85.69;100097.28;5060938;28;20032;-74
2021/05/14 06:10:14;;;;;;;22.25;19.83;;;;;;;14.71;85.75;100099.06;5068641;28;20027;-72
2021/05/14 06:12:40;;;;;;;23.27;19.38;;;;;;;14.75;85.87;100097.31;5053111;28;20032;-72
2021/05/14 06:15:06;;;;;;;22.70;20.27;;;;;;;14.80;85.74;100108.13;5052445;28;20115;-75
2021/05/14 06:17:34;;;;;;;22.60;18.55;;;;;;;14.84;85.56;100109.09;5061078;28;20077;-74
2021/05/14 06:20:02;;;;;;;20.40;18.20;;;;;;;14.89;85.54;100119.94;5051252;28;20025;-72
2021/05/14 06:22:27;;;;;;;22.02;19.25;;;;;;;14.96;85.48;100119.47;5055408;28;20025;-73
2021/05/14 06:24:52;;;;;;;21.02;18.90;;;;;;;15.06;85.26;100116.44;5054252;28;20032;-73
2021/05/14 06:27:18;;;;;;;21.52;19.23;;;;;;;15.17;85.18;100115.00;5063639;28;20032;-73
2021/05/14 06:29:46;;;;;;;23.42;19.30;;;;;;;15.31;85.04;100120.34;5061946;28;20032;-73
2021/05/14 06:32:12;;;;;;;19.77;17.70;;;;;;;15.49;84.98;100124.69;5061843;28;20428;-73
2021/05/14 06:34:37;;;;;;;21.55;18.65;;;;;;;15.62;84.63;100127.63;5056703;28;20052;-73
2021/05/14 06:37:03;;;;;;;18.42;16.60;;;;;;;15.74;84.47;100109.38;5039725;28;20025;-73
2021/05/14 06:39:28;;;;;;;18.05;16.15;;;;;;;15.85;84.25;100115.34;5054768;28;20033;-73
2021/05/14 06:41:54;;;;;;;17.90;16.17;;;;;;;15.87;84.03;100124.06;5053448;28;20029;-73
2021/05/14 06:44:19;;;;;;;19.65;17.75;;;;;;;15.94;83.97;100116.13;5053588;28;20368;-73
2021/05/14 06:46:45;;;;;;;20.25;17.60;;;;;;;16.02;83.69;100119.22;5051580;28;20036;-72
2021/05/14 06:49:11;;;;;;;17.75;15.43;;;;;;;16.10;83.89;100118.38;5052558;28;20029;-73
2021/05/14 06:51:36;;;;;;;16.17;14.52;;;;;;;16.16;83.39;100120.63;5054682;28;20031;-73
2021/05/14 06:54:01;;;;;;;18.95;15.63;;;;;;;16.25;83.31;100123.34;5046668;28;20025;-73
2021/05/14 06:56:27;;;;;;;16.52;14.93;;;;;;;16.33;83.07;100132.69;5047843;28;20025;-73
2021/05/14 06:58:56;;;;;;;16.05;14.40;;;;;;;16.46;82.71;100128.13;5057906;28;20016;-72
2021/05/14 07:01:22;;;;;;;14.57;13.27;;;;;;;16.61;82.36;100124.81;5052314;28;20025;-73
2021/05/14 07:03:47;;;;;;;16.85;13.20;;;;;;;16.70;82.06;100124.81;5056363;28;20040;-73
2021/05/14 07:06:15;;;;;;;14.23;12.80;;;;;;;16.77;81.69;100117.66;5057748;28;20039;-73
2021/05/14 07:08:40;;;;;;;14.13;12.82;;;;;;;16.88;81.50;100122.78;5065960;28;20032;-73
2021/05/14 07:11:06;;;;;;;14.32;12.93;;;;;;;16.93;81.11;100126.16;5041877;28;20028;-73
2021/05/14 07:13:31;;;;;;;13.40;12.05;;;;;;;17.01;80.82;100121.75;5051594;28;20356;-74
2021/05/14 07:15:57;;;;;;;13.10;11.90;;;;;;;17.03;80.26;100120.28;5050953;28;20033;-73
2021/05/14 07:18:23;;;;;;;13.73;12.25;;;;;;;17.03;79.96;100113.97;5060758;28;20104;-72
2021/05/14 07:20:48;;;;;;;13.02;11.68;;;;;;;17.08;79.34;100109.06;5046618;28;20423;-72
2021/05/14 07:23:14;;;;;;;14.18;12.85;;;;;;;17.12;79.31;100111.94;5068539;28;20028;-72
2021/05/14 07:25:39;;;;;;;14.02;12.55;;;;;;;17.15;79.14;100105.75;5062176;28;20070;-72
2021/05/14 07:28:04;;;;;;;14.40;12.98;;;;;;;17.22;78.83;100110.75;5057741;28;20395;-73
2021/05/14 07:30:30;;;;;;;14.45;13.07;;;;;;;17.22;78.48;100108.00;5064649;28;20375;-71
2021/05/14 07:32:57;;;;;;;14.98;13.45;;;;;;;17.23;78.32;100102.13;5060926;28;20024;-72
2021/05/14 07:35:22;;;;;;;14.65;13.27;;;;;;;17.19;77.89;100100.41;5047646;28;20028;-72
2021/05/14 07:37:48;;;;;;;15.60;13.77;;;;;;;17.11;77.84;100099.31;5051968;28;20028;-71
2021/05/14 07:40:14;;;;;;;15.32;13.60;;;;;;;17.04;77.54;100099.03;5058777;28;20467;-73
2021/05/14 07:42:40;;;;;;;14.75;13.30;;;;;;;16.95;77.43;100096.34;5054795;28;20467;-73
2021/05/14 07:45:06;;;;;;;15.25;13.45;;;;;;;16.88;77.50;100095.25;5058436;28;20029;-72
2021/05/14 07:47:32;;;;;;;14.52;13.18;;;;;;;16.84;77.30;100089.63;5054093;28;20514;-72
2021/05/14 07:49:57;;;;;;;13.98;12.52;;;;;;;16.80;77.21;100103.22;5051467;28;20025;-73
2021/05/14 07:52:23;;;;;;;14.98;13.23;;;;;;;16.70;77.02;100111.84;5051198;28;20030;-73
2021/05/14 07:54:48;;;;;;;17.20;15.68;;;;;;;16.63;77.08;100114.28;5048730;28;20031;-73
2021/05/14 07:57:13;;;;;;;19.42;15.90;;;;;;;16.64;77.15;100115.91;5060620;28;20471;-72
2021/05/14 07:59:39;;;;;;;18.52;16.38;;;;;;;16.59;77.03;100116.13;5043085;28;20033;-73
2021/05/14 08:02:04;;;;;;;20.50;17.23;;;;;;;16.41;77.22;100116.16;5047704;28;20049;-73
2021/05/14 08:04:30;;;;;;;19.95;16.67;;;;;;;16.38;77.48;100116.81;5048382;28;20021;-73
2021/05/14 08:06:55;;;;;;;17.90;16.10;;;;;;;16.42;77.46;100105.97;5046071;28;20021;-73
2021/05/14 08:09:22;;;;;;;19.88;16.38;;;;;;;16.32;77.60;100101.66;5048980;28;20024;-74
2021/05/14 08:11:49;;;;;;;16.92;15.32;;;;;;;16.36;77.79;100110.84;5050569;28;20120;-73
2021/05/14 08:14:14;;;;;;;17.88;16.08;;;;;;;16.44;77.75;100114.69;5049181;28;20043;-73
2021/05/14 08:16:40;;;;;;;19.55;16.48;;;;;;;16.53;77.72;100118.25;5049189;28;20483;-73
2021/05/14 08:19:06;;;;;;;17.02;14.90;;;;;;;16.59;77.69;100110.59;5066164;28;20079;-74
2021/05/14 08:21:31;;;;;;;17.30;15.63;;;;;;;16.57;77.61;100112.88;5032476;28;20032;-73
2021/05/14 08:23:57;;;;;;;17.38;15.77;;;;;;;16.61;77.79;100119.31;5052151;28;20025;-73
2021/05/14 08:26:22;;;;;;;17.88;16.00;;;;;;;16.77;77.80;100128.66;5049141;28;20169;-73
2021/05/14 08:28:48;;;;;;;18.60;16.80;;;;;;;16.92;77.59;100138.31;5067552;28;20028;-73
2021/05/14 08:31:13;;;;;;;18.02;16.15;;;;;;;17.04;77.25;100134.84;5045476;28;20468;-73
2021/05/14 08:33:39;;;;;;;17.75;15.95;;;;;;;17.13;77.26;100132.81;5050876;28;20380;-73
2021/05/14 08:36:05;;;;;;;17.02;15.25;;;;;;;17.21;77.17;100137.47;5041902;28;20486;-74
2021/05/14 08:38:30;;;;;;;17.35;15.65;;;;;;;17.25;76.82;100143.13;5050541;28;20021;-74
2021/05/14 08:40:56;;;;;;;18.25;16.40;;;;;;;17.23;76.62;100135.19;5050918;28;20025;-74
2021/05/14 08:43:22;;;;;;;17.40;15.70;;;;;;;17.28;76.52;100137.75;5050290;28;20040;-74
2021/05/14 08:45:49;;;;;;;17.60;15.90;;;;;;;17.34;76.59;100132.06;5051466;28;20025;-73
2021/05/14 08:48:15;;;;;;;17.60;15.73;;;;;;;17.30;76.14;100129.97;5051819;28;20029;-74
2021/05/14 08:50:41;;;;;;;16.50;14.90;;;;;;;17.25;76.29;100132.91;5048138;28;20406;-73
2021/05/14 08:53:06;;;;;;;16.52;15.02;;;;;;;17.24;76.37;100145.09;5049133;28;20029;-73
2021/05/14 08:55:32;;;;;;;17.30;15.70;;;;;;;17.19;75.85;100159.06;5037006;28;20056;-73
2021/05/14 08:57:58;;;;;;;16.40;14.77;;;;;;;17.14;76.22;100150.97;5048658;28;20467;-73
2021/05/14 09:00:24;;;;;;;15.82;14.32;;;;;;;16.99;75.94;100151.53;5048307;28;20497;-73
2021/05/14 09:02:51;;;;;;;15.93;14.23;;;;;;;16.86;76.13;100154.22;5065848;28;20028;-74
2021/05/14 09:05:27;;;;;;;15.60;14.20;;;;;;;16.79;76.17;100151.16;5050280;28;20025;-74
2021/05/14 09:07:55;;;;;;;15.52;13.93;;;;;;;16.77;76.22;100156.19;5051023;28;20024;-73
2021/05/14 09:10:21;;;;;;;16.58;14.45;;;;;;;16.77;76.20;100158.94;5050318;28;20025;-73
2021/05/14 09:12:46;;;;;;;15.32;13.80;;;;;;;16.81;75.95;100157.16;5048525;28;20495;-73
2021/05/14 09:15:41;;;;;;;14.75;13.25;;;;;;;16.89;75.66;100152.75;5054078;28;20035;-73
2021/05/14 09:18:19;;;;;;;14.32;12.88;;;;;;;16.97;75.45;100151.06;5053826;28;20072;-74
2021/05/14 09:20:54;;;;;;;14.15;12.73;;;;;;;17.11;75.45;100150.84;5052788;28;20108;-73
2021/05/14 09:23:19;;;;;;;14.88;13.30;;;;;;;17.27;75.18;100147.19;5053360;28;20419;-74
2021/05/14 09:25:53;;;;;;;15.65;14.05;;;;;;;17.47;74.79;100145.56;5054122;28;20100;-72
2021/05/14 09:28:38;;;;;;;15.35;13.85;;;;;;;17.68;74.23;100142.81;5052633;28;20462;-74
2021/05/14 09:31:09;;;;;;;17.15;12.98;;;;;;;17.85;73.39;100143.84;5055911;28;20101;-73
2021/05/14 09:33:37;;;;;;;14.98;13.48;;;;;;;17.94;72.86;100142.59;5054290;28;20045;-72
2021/05/14 09:36:05;;;;;;;17.05;13.48;;;;;;;18.03;72.33;100144.47;5054394;28;20501;-71
2021/05/14 09:38:46;;;;;;;14.88;13.30;;;;;;;18.01;72.39;100146.78;5053461;28;20408;-72
2021/05/14 09:41:40;;;;;;;14.55;13.05;;;;;;;18.29;71.70;100147.75;5057392;28;20041;-72
2021/05/14 09:44:09;;;;;;;14.75;13.35;;;;;;;18.53;71.05;100146.19;5046677;28;20032;-73
2021/05/14 09:46:41;;;;;;;16.75;13.80;;;;;;;18.79;70.06;100154.19;5073362;28;20025;-73
2021/05/14 09:49:28;;;;;;;18.52;14.45;;;;;;;19.29;68.82;100144.72;5052559;28;20555;-73
2021/05/14 09:52:05;;;;;;;15.57;14.18;;;;;;;19.57;67.73;100144.75;5050009;28;20187;-73
2021/05/14 09:54:30;;;;;;;21.75;14.52;;;;;;;19.79;66.91;100146.22;5051765;28;20044;-73
2021/05/14 09:57:06;;;;;;;16.05;14.40;;;;;;;19.99;66.42;100138.06;5051174;28;20353;-72
2021/05/14 09:59:32;;;;;;;15.75;14.27;;;;;;;20.27;65.59;100146.31;5038710;28;20049;-73
2021/05/14 10:01:58;;;;;;;15.05;13.27;;;;;;;20.30;64.81;100137.31;5051279;28;20158;-71
2021/05/14 10:04:23;;;;;;;14.88;13.57;;;;;;;20.29;64.52;100144.00;5048988;28;20424;-71
2021/05/14 10:06:49;;;;;;;16.27;14.75;;;;;;;20.24;64.00;100144.25;5049227;28;20029;-71
2021/05/14 10:09:19;;;;;;;15.82;14.40;;;;;;;20.09;63.42;100148.63;5035827;28;20032;-71
2021/05/14 10:11:44;;;;;;;15.85;13.60;;;;;;;20.05;63.14;100139.41;5052595;28;20116;-71
2021/05/14 10:14:09;;;;;;;16.05;14.63;;;;;;;20.07;63.00;100145.38;5053005;28;20471;-72
2021/05/14 10:16:35;;;;;;;16.50;14.88;;;;;;;20.14;62.42;100151.13;5051233;28;20028;-72
2021/05/14 10:19:00;;;;;;;17.48;15.88;;;;;;;20.20;62.48;100149.72;5052260;28;20025;-71
2021/05/14 10:21:26;;;;;;;17.83;15.70;;;;;;;20.22;62.14;100139.09;5060270;28;20020;-72
2021/05/14 10:23:51;;;;;;;16.73;15.10;;;;;;;20.17;61.55;100142.91;5048253;28;20396;-72
2021/05/14 10:26:16;;;;;;;16.52;14.77;;;;;;;20.28;61.43;100134.91;5029393;28;20021;-72
2021/05/14 10:28:48;;;;;;;17.08;15.18;;;;;;;20.49;60.82;100139.38;5056547;28;20036;-72
2021/05/14 10:31:19;;;;;;;16.40;15.00;;;;;;;20.74;60.94;100129.75;5056671;28;20104;-73
2021/05/14 10:33:45;;;;;;;16.55;15.02;;;;;;;20.89;60.70;100136.44;5055098;28;20041;-72
2021/05/14 10:36:11;;;;;;;18.52;16.63;;;;;;;21.18;60.02;100143.47;5052958;28;20025;-72
2021/05/14 10:38:36;;;;;;;16.80;15.30;;;;;;;21.44;58.94;100133.75;5056238;28;20021;-73
2021/05/14 10:41:25;;;;;;;17.38;15.57;;;;;;;21.49;58.54;100134.25;5050432;28;20025;-72
2021/05/14 10:44:00;;;;;;;16.70;15.23;;;;;;;21.45;57.84;100138.13;5056660;28;20100;-72
2021/05/14 10:46:28;;;;;;;18.02;16.35;;;;;;;21.27;57.21;100134.94;5052413;28;20024;-72
2021/05/14 10:49:04;;;;;;;18.00;16.45;;;;;;;21.20;57.83;100127.28;5056541;28;20029;-72
2021/05/14 10:51:48;;;;;;;18.33;16.65;;;;;;;21.31;57.44;100121.13;5050386;28;20029;-72
2021/05/14 10:54:40;;;;;;;18.48;16.60;;;;;;;21.20;57.04;100130.03;5054060;28;20032;-72
2021/05/14 10:57:06;;;;;;;16.77;15.17;;;;;;;21.05;58.00;100128.09;5052490;28;20041;-72
2021/05/14 10:59:38;;;;;;;17.10;15.43;;;;;;;21.06;57.45;100126.94;5068231;28;20265;-72
2021/05/14 11:02:30;;;;;;;17.00;15.27;;;;;;;20.70;57.41;100123.31;5051601;28;20021;-72
2021/05/14 11:04:59;;;;;;;17.65;15.65;;;;;;;20.53;57.72;100134.75;5052045;28;20033;-72
2021/05/14 11:07:42;;;;;;;16.50;14.80;;;;;;;20.37;57.83;100126.41;5049925;28;20059;-72
2021/05/14 11:10:13;;;;;;;17.55;15.85;;;;;;;20.47;58.02;100119.56;5045255;28;20536;-71